Time;durP1;ratioP1;P1;durP2;ratioP2;P2;SDS_P1;SDS_P2;PMS_P1;PMS_P2;Temp;Humidity;BMP_temperature;BMP_pressure;BME280_temperature;BME280_humidity;BME280_pressure;Samples;Min_cycle;Max_cycle;Signal;HPM_P1;HPM_P2
2023/09/20 00:01:50;;;;;;;6.77;6.23;;;;;;;21.63;68.07;99653.25;5071793;28;20184;-66
2023/09/20 00:04:17;;;;;;;7.63;6.57;;;;;;;21.69;67.81;99646.81;5072156;28;20199;-67
2023/09/20 00:06:44;;;;;;;11.50;6.43;;;;;;;21.73;67.85;99647.13;5072438;28;20202;-66
2023/09/20 00:09:10;;;;;;;6.97;6.27;;;;;;;21.73;68.31;99645.22;5090027;28;20198;-66
2023/09/20 00:11:37;;;;;;;9.93;7.30;;;;;;;21.76;68.28;99622.25;5092346;28;20191;-66
2023/09/20 00:14:04;;;;;;;6.87;6.27;;;;;;;21.77;68.06;99613.06;5091358;28;20208;-67
2023/09/20 00:16:32;;;;;;;6.33;5.70;;;;;;;21.83;67.73;99596.56;5092259;28;20579;-67
2023/09/20 00:18:59;;;;;;;6.87;6.27;;;;;;;21.87;67.12;99584.16;5092152;28;20194;-66
2023/09/20 00:21:25;;;;;;;6.70;5.87;;;;;;;21.95;66.62;99591.75;5092146;28;20191;-66
2023/09/20 00:23:52;;;;;;;6.70;5.83;;;;;;;22.00;66.00;99591.75;5091784;28;20283;-67
2023/09/20 00:26:19;;;;;;;8.13;6.20;;;;;;;22.07;65.71;99575.25;5092107;28;20245;-66
2023/09/20 00:28:48;;;;;;;6.07;5.57;;;;;;;22.11;65.58;99577.16;5092209;28;20195;-67
2023/09/20 00:31:15;;;;;;;6.33;5.77;;;;;;;22.16;65.61;99569.03;5085843;28;20193;-67
2023/09/20 00:33:43;;;;;;;6.70;6.17;;;;;;;22.23;64.93;99561.47;5071455;28;20231;-67
2023/09/20 00:36:10;;;;;;;6.47;5.83;;;;;;;22.32;64.64;99564.44;5071920;28;20275;-67
2023/09/20 00:38:37;;;;;;;7.30;6.70;;;;;;;22.36;64.27;99552.81;5071378;28;20231;-67
2023/09/20 00:41:06;;;;;;;7.37;6.50;;;;;;;22.30;64.40;99564.72;5071758;28;20233;-66
2023/09/20 00:43:33;;;;;;;7.37;6.30;;;;;;;22.37;64.69;99564.47;5071655;28;20196;-67
2023/09/20 00:46:00;;;;;;;7.57;6.87;;;;;;;22.37;64.33;99565.28;5071467;28;20192;-66
2023/09/20 00:48:29;;;;;;;6.90;5.90;;;;;;;22.41;64.61;99565.56;5069940;28;20194;-66
2023/09/20 00:50:57;;;;;;;7.93;6.50;;;;;;;22.45;64.54;99562.03;5069869;28;20229;-66
2023/09/20 00:53:25;;;;;;;7.40;6.70;;;;;;;22.45;64.35;99572.84;5070634;28;20310;-66
2023/09/20 00:55:52;;;;;;;10.00;6.07;;;;;;;22.32;63.71;99572.56;5070957;28;20253;-66
2023/09/20 00:58:20;;;;;;;6.90;5.97;;;;;;;21.99;64.83;99565.78;5070937;28;20192;-66
2023/09/20 01:00:47;;;;;;;7.33;6.80;;;;;;;21.91;64.77;99566.31;5071060;28;20196;-66
2023/09/20 01:03:18;;;;;;;7.00;6.47;;;;;;;21.88;64.96;99566.81;5091427;28;20199;-67
2023/09/20 01:05:47;;;;;;;6.87;5.97;;;;;;;21.79;65.37;99563.03;5089836;28;20647;-67
2023/09/20 01:08:17;;;;;;;7.10;6.40;;;;;;;21.86;65.25;99565.47;5079465;28;20193;-66
2023/09/20 01:10:45;;;;;;;6.97;6.27;;;;;;;21.89;65.67;99568.44;5073111;28;20192;-66
2023/09/20 01:13:15;;;;;;;6.10;5.57;;;;;;;21.95;64.99;99567.41;5073125;28;20572;-65
2023/09/20 01:15:42;;;;;;;6.90;6.37;;;;;;;21.90;64.65;99564.69;5073141;28;20251;-65
2023/09/20 01:18:09;;;;;;;5.83;5.33;;;;;;;21.91;64.99;99565.47;5076682;28;20202;-66
2023/09/20 01:20:39;;;;;;;6.00;5.53;;;;;;;21.94;64.67;99568.47;5094154;28;20188;-66
2023/09/20 01:23:07;;;;;;;8.07;6.00;;;;;;;21.89;64.62;99563.03;5095808;28;20237;-66
2023/09/20 01:25:36;;;;;;;5.97;5.40;;;;;;;21.90;65.09;99561.16;5095384;28;20191;-67
2023/09/20 01:28:04;;;;;;;6.37;5.87;;;;;;;21.89;64.93;99563.03;5094981;28;20191;-67
2023/09/20 01:30:33;;;;;;;6.53;5.33;;;;;;;21.97;64.98;99554.41;5083377;28;20649;-67
2023/09/20 01:33:03;;;;;;;6.13;5.37;;;;;;;22.00;64.22;99558.47;5075223;28;20332;-67
2023/09/20 01:35:31;;;;;;;5.73;5.10;;;;;;;21.96;64.22;99558.19;5074849;28;20199;-67
2023/09/20 01:37:58;;;;;;;5.60;5.30;;;;;;;21.96;64.07;99560.91;5075201;28;20192;-67
2023/09/20 01:40:33;;;;;;;5.93;5.27;;;;;;;22.03;64.03;99557.94;5074557;28;20188;-67
2023/09/20 01:43:00;;;;;;;5.57;5.00;;;;;;;22.07;63.71;99559.00;5074660;28;20219;-67
2023/09/20 01:45:27;;;;;;;5.77;5.27;;;;;;;22.12;63.74;99569.84;5085074;28;20271;-67
2023/09/20 01:47:55;;;;;;;6.17;5.67;;;;;;;22.14;62.88;99571.22;5094837;28;20253;-67
2023/09/20 01:50:24;;;;;;;6.83;5.80;;;;;;;22.21;62.98;99582.56;5094827;28;20188;-67
2023/09/20 01:52:52;;;;;;;5.90;5.50;;;;;;;22.24;63.07;99576.63;5085568;28;20202;-67
2023/09/20 01:55:20;;;;;;;6.67;5.20;;;;;;;22.31;62.65;99577.19;5094427;28;20283;-67
2023/09/20 01:57:49;;;;;;;8.70;5.60;;;;;;;22.34;61.88;99587.44;5094742;28;20256;-67
2023/09/20 02:00:22;;;;;;;6.23;5.70;;;;;;;22.36;61.88;99581.78;5094760;28;20236;-67
2023/09/20 02:02:49;;;;;;;9.13;6.00;;;;;;;22.35;62.02;99580.97;5083988;28;20202;-66
2023/09/20 02:05:18;;;;;;;10.87;5.30;;;;;;;22.31;62.24;99573.66;5074413;28;20196;-66
2023/09/20 02:07:48;;;;;;;7.30;6.40;;;;;;;22.31;62.42;99577.19;5080285;28;20192;-66
2023/09/20 02:10:16;;;;;;;7.30;5.17;;;;;;;22.28;63.45;99585.84;5094837;28;20212;-67
2023/09/20 02:12:47;;;;;;;9.07;6.30;;;;;;;22.19;63.55;99595.56;5094487;28;20230;-67
2023/09/20 02:15:16;;;;;;;6.23;5.73;;;;;;;22.05;63.94;99583.63;5094076;28;20270;-66
2023/09/20 02:17:43;;;;;;;6.10;5.40;;;;;;;21.93;64.69;99585.78;5094112;28;20198;-67
2023/09/20 02:20:19;;;;;;;7.20;5.47;;;;;;;21.94;64.74;99595.53;5092869;28;20715;-67
2023/09/20 02:22:47;;;;;;;8.37;5.47;;;;;;;21.88;64.55;99595.78;5094450;28;20234;-66
2023/09/20 02:25:20;;;;;;;12.23;6.70;;;;;;;21.83;65.06;99584.94;5093883;28;20194;-67
2023/09/20 02:27:47;;;;;;;7.60;5.23;;;;;;;21.81;65.19;99589.81;5093858;28;20658;-67
2023/09/20 02:30:17;;;;;;;10.10;6.13;;;;;;;21.75;65.31;99598.97;5093767;28;20289;-67
2023/09/20 02:32:44;;;;;;;6.20;5.70;;;;;;;21.72;65.74;99597.63;5094050;28;20230;-67
2023/09/20 02:35:11;;;;;;;7.13;5.60;;;;;;;21.65;65.82;99596.22;5093957;28;20277;-67
2023/09/20 02:37:40;;;;;;;12.40;6.57;;;;;;;21.60;66.22;99598.91;5079522;28;20197;-67
2023/09/20 02:40:09;;;;;;;6.93;6.17;;;;;;;21.52;66.55;99583.19;5073752;28;20203;-67
2023/09/20 02:42:41;;;;;;;6.07;5.53;;;;;;;21.49;66.88;99600.75;5073958;28;20188;-67
2023/09/20 02:45:10;;;;;;;6.10;5.50;;;;;;;21.37;67.22;99602.88;5073645;28;20275;-67
2023/09/20 02:47:39;;;;;;;11.57;5.83;;;;;;;21.31;67.81;99587.69;5071954;28;20230;-67
2023/09/20 02:50:08;;;;;;;6.87;6.00;;;;;;;21.28;67.82;99596.34;5071020;28;20192;-66
2023/09/20 02:52:34;;;;;;;12.60;6.27;;;;;;;21.27;67.71;99591.97;5072057;28;20192;-66
2023/09/20 02:55:04;;;;;;;8.00;6.10;;;;;;;21.30;67.67;99596.03;5088200;28;20219;-65
2023/09/20 02:57:30;;;;;;;11.10;6.40;;;;;;;21.29;67.59;99600.66;5092526;28;20191;-66
2023/09/20 02:59:58;;;;;;;8.00;6.27;;;;;;;21.19;68.23;99595.19;5092515;28;20187;-66
2023/09/20 03:02:25;;;;;;;6.83;6.23;;;;;;;21.19;68.04;99594.38;5084499;28;20624;-66
2023/09/20 03:04:54;;;;;;;7.17;6.47;;;;;;;21.15;68.43;99594.06;5071557;28;20560;-66
2023/09/20 03:07:22;;;;;;;7.57;6.03;;;;;;;21.00;68.47;99590.47;5073294;28;20224;-67
2023/09/20 03:09:48;;;;;;;10.20;7.10;;;;;;;20.98;68.76;99587.25;5091366;28;20187;-67
2023/09/20 03:12:15;;;;;;;20.93;11.17;;;;;;;21.00;68.49;99588.59;5090455;28;20191;-66
2023/09/20 03:14:44;;;;;;;22.20;10.03;;;;;;;21.02;68.73;99591.06;5090987;28;20226;-66
2023/09/20 03:17:12;;;;;;;12.03;7.93;;;;;;;21.01;68.88;99592.94;5090819;28;20191;-66
2023/09/20 03:19:38;;;;;;;8.73;6.80;;;;;;;20.77;69.08;99564.66;5091752;28;20191;-66
2023/09/20 03:22:08;;;;;;;7.27;6.60;;;;;;;20.94;68.57;99595.03;5093243;28;20249;-66
2023/09/20 03:24:37;;;;;;;12.00;9.47;;;;;;;20.91;68.60;99597.41;5092797;28;20195;-66
2023/09/20 03:27:05;;;;;;;17.87;13.03;;;;;;;20.91;69.08;99597.41;5090786;28;20187;-67
2023/09/20 03:29:32;;;;;;;17.20;11.40;;;;;;;20.89;68.92;99596.84;5072651;28;20206;-67
2023/09/20 03:32:00;;;;;;;14.73;9.00;;;;;;;20.84;68.82;99600.34;5071717;28;20622;-66
2023/09/20 03:34:27;;;;;;;14.77;7.53;;;;;;;20.72;69.76;99602.41;5072577;28;20223;-66
2023/09/20 03:36:57;;;;;;;12.47;7.37;;;;;;;20.66;70.61;99600.75;5072312;28;20724;-66
2023/09/20 03:39:25;;;;;;;12.87;8.33;;;;;;;20.67;70.58;99591.59;5083144;28;20260;-66
2023/09/20 03:41:52;;;;;;;18.67;9.60;;;;;;;20.68;70.59;99587.81;5092629;28;20714;-66
2023/09/20 03:44:20;;;;;;;27.13;9.17;;;;;;;20.72;70.56;99597.03;5082898;28;20206;-66
2023/09/20 03:46:48;;;;;;;18.37;7.97;;;;;;;20.71;70.44;99599.97;5092830;28;20195;-66
2023/09/20 03:49:15;;;;;;;12.40;7.97;;;;;;;20.70;70.75;99601.84;5092734;28;20286;-66
2023/09/20 03:51:42;;;;;;;11.87;8.43;;;;;;;20.70;70.51;99601.84;5092703;28;20199;-65
2023/09/20 03:54:09;;;;;;;13.53;7.80;;;;;;;20.69;71.10;99600.22;5092086;28;20225;-67
2023/09/20 03:56:37;;;;;;;16.20;8.30;;;;;;;20.59;70.45;99605.56;5088082;28;20714;-66
2023/09/20 03:59:04;;;;;;;15.27;7.87;;;;;;;20.49;71.05;99605.47;5076353;28;20192;-66
2023/09/20 04:01:30;;;;;;;19.50;7.77;;;;;;;20.48;71.67;99601.16;5071339;28;20192;-66
2023/09/20 04:03:58;;;;;;;17.07;8.17;;;;;;;20.48;71.40;99604.66;5071534;28;20192;-66
2023/09/20 04:06:26;;;;;;;18.00;8.37;;;;;;;20.48;71.57;99609.25;5071414;28;20340;-65
2023/09/20 04:08:53;;;;;;;19.13;9.23;;;;;;;20.48;71.74;99617.34;5086790;28;20589;-65
2023/09/20 04:11:20;;;;;;;22.97;8.23;;;;;;;20.47;72.01;99618.41;5091728;28;20196;-65
2023/09/20 04:13:50;;;;;;;21.97;8.83;;;;;;;20.46;72.07;99612.19;5092271;28;20234;-65
2023/09/20 04:16:16;;;;;;;12.63;7.53;;;;;;;20.47;72.01;99618.41;5091230;28;20218;-65
2023/09/20 04:18:44;;;;;;;19.60;8.60;;;;;;;20.53;71.50;99620.06;5092486;28;20195;-66
2023/09/20 04:21:10;;;;;;;18.70;7.87;;;;;;;20.53;71.44;99623.59;5091545;28;20245;-68
2023/09/20 04:23:38;;;;;;;23.77;9.23;;;;;;;20.55;71.29;99617.94;5082741;28;20187;-66
2023/09/20 04:26:03;;;;;;;23.57;9.37;;;;;;;20.53;71.40;99622.78;5081447;28;20573;-65
2023/09/20 04:28:30;;;;;;;35.10;9.87;;;;;;;20.53;71.68;99628.16;5080152;28;20183;-65
2023/09/20 04:30:58;;;;;;;23.83;9.23;;;;;;;20.55;71.65;99620.66;5071424;28;20188;-66
2023/09/20 04:33:25;;;;;;;23.73;9.97;;;;;;;20.63;71.33;99622.88;5071234;28;20245;-66
2023/09/20 04:35:53;;;;;;;29.20;13.37;;;;;;;20.71;71.38;99619.69;5077750;28;20203;-68
2023/09/20 04:38:20;;;;;;;31.70;10.67;;;;;;;20.82;71.44;99632.19;5074348;28;20200;-67
2023/09/20 04:40:46;;;;;;;23.50;9.63;;;;;;;20.87;71.11;99632.25;5071285;28;20281;-66
2023/09/20 04:43:14;;;;;;;41.43;9.97;;;;;;;20.92;70.87;99632.31;5084788;28;20195;-66
2023/09/20 04:45:40;;;;;;;36.00;11.30;;;;;;;20.93;71.07;99631.22;5095047;28;20195;-67
2023/09/20 04:48:08;;;;;;;28.57;11.73;;;;;;;20.96;71.24;99628.00;5098958;28;20296;-66
2023/09/20 04:50:35;;;;;;;19.40;10.47;;;;;;;21.08;71.25;99620.53;5100011;28;20731;-65
2023/09/20 04:53:02;;;;;;;22.77;9.10;;;;;;;21.34;71.77;99630.41;5094575;28;20191;-67
2023/09/20 04:55:29;;;;;;;21.73;9.53;;;;;;;21.94;69.52;99630.69;5094464;28;20219;-68
2023/09/20 04:57:56;;;;;;;27.23;11.07;;;;;;;22.65;66.87;99629.75;5094599;28;20195;-68
2023/09/20 05:00:33;;;;;;;20.47;12.13;;;;;;;23.30;63.66;99635.13;5094956;28;20231;-68
2023/09/20 05:03:00;;;;;;;23.10;11.23;;;;;;;23.89;61.99;99652.25;5095109;28;20659;-65
2023/09/20 05:05:28;;;;;;;27.77;13.60;;;;;;;24.39;58.28;99654.72;5094143;28;20216;-65
2023/09/20 05:07:55;;;;;;;26.57;12.07;;;;;;;24.68;57.13;99666.50;5086330;28;20193;-65
2023/09/20 05:10:21;;;;;;;21.27;9.83;;;;;;;25.15;55.98;99673.19;5072399;28;20256;-65
2023/09/20 05:12:48;;;;;;;22.27;10.10;;;;;;;25.50;54.35;99670.13;5076681;28;20244;-66
2023/09/20 05:15:15;;;;;;;14.07;8.97;;;;;;;25.83;53.19;99674.63;5084224;28;20649;-66
2023/09/20 05:17:43;;;;;;;11.00;8.63;;;;;;;26.12;51.88;99689.00;5083949;28;20225;-66
2023/09/20 05:20:12;;;;;;;27.83;8.90;;;;;;;26.42;50.23;99688.59;5084244;28;20236;-66
2023/09/20 05:22:41;;;;;;;15.23;7.70;;;;;;;26.61;49.48;99686.69;5075915;28;20279;-65
2023/09/20 05:25:09;;;;;;;15.80;7.23;;;;;;;26.83;47.41;99687.69;5082893;28;20244;-65
2023/09/20 05:27:36;;;;;;;24.30;7.93;;;;;;;26.96;47.41;99683.41;5087146;28;20200;-65
2023/09/20 05:30:03;;;;;;;20.90;7.83;;;;;;;27.17;46.59;99681.94;5076559;28;20203;-65
2023/09/20 05:32:30;;;;;;;16.17;7.70;;;;;;;27.40;46.36;99683.75;5079354;28;20195;-65
2023/09/20 05:34:57;;;;;;;25.33;7.10;;;;;;;27.67;45.16;99700.13;5079312;28;20216;-65
2023/09/20 05:37:23;;;;;;;20.50;8.20;;;;;;;27.65;44.36;99696.91;5073950;28;20191;-65
2023/09/20 05:39:51;;;;;;;26.83;9.30;;;;;;;27.33;44.67;99699.69;5074320;28;20279;-65
2023/09/20 05:42:18;;;;;;;21.00;8.23;;;;;;;26.96;46.15;99699.75;5074386;28;20273;-65
2023/09/20 05:44:45;;;;;;;26.00;9.40;;;;;;;26.55;48.86;99696.03;5081364;28;20629;-65
2023/09/20 05:47:11;;;;;;;17.23;7.63;;;;;;;26.81;51.26;99692.66;5093894;28;20659;-65
2023/09/20 05:49:38;;;;;;;15.67;9.30;;;;;;;27.08;47.10;99697.38;5094704;28;20187;-65
2023/09/20 05:52:06;;;;;;;13.13;7.40;;;;;;;27.55;46.63;99691.63;5094647;28;20196;-65
2023/09/20 05:54:32;;;;;;;17.20;8.43;;;;;;;28.04;45.95;99699.97;5093008;28;20302;-65
2023/09/20 05:57:01;;;;;;;20.47;7.77;;;;;;;28.44;44.95;99696.38;5093829;28;20188;-65
2023/09/20 05:59:28;;;;;;;29.97;10.27;;;;;;;28.45;43.95;99700.72;5094028;28;20720;-65
2023/09/20 06:01:55;;;;;;;28.67;14.53;;;;;;;28.69;44.75;99698.53;5094405;28;20223;-65
2023/09/20 06:04:22;;;;;;;16.10;9.80;;;;;;;28.91;43.50;99704.81;5093976;28;20280;-65
2023/09/20 06:06:49;;;;;;;17.70;7.97;;;;;;;29.27;41.96;99713.78;5090253;28;20191;-65
2023/09/20 06:09:16;;;;;;;13.90;8.73;;;;;;;29.49;40.67;99710.22;5093998;28;20191;-65
2023/09/20 06:11:42;;;;;;;13.57;9.17;;;;;;;29.50;40.00;99709.09;5087695;28;20192;-65
2023/09/20 06:14:10;;;;;;;7.30;6.60;;;;;;;29.66;40.06;99710.31;5073054;28;20195;-66
2023/09/20 06:16:37;;;;;;;10.67;7.00;;;;;;;30.07;38.90;99721.75;5073737;28;20234;-62
2023/09/20 06:19:04;;;;;;;15.03;6.73;;;;;;;30.38;38.57;99717.00;5073170;28;20269;-63
2023/09/20 06:21:31;;;;;;;16.73;7.27;;;;;;;30.29;38.08;99718.94;5075111;28;20260;-65
2023/09/20 06:23:58;;;;;;;14.63;8.20;;;;;;;30.54;37.90;99717.38;5093166;28;20213;-63
2023/09/20 06:26:25;;;;;;;13.87;7.00;;;;;;;30.72;36.74;99717.09;5093160;28;20199;-63
2023/09/20 06:28:52;;;;;;;14.03;8.73;;;;;;;30.59;36.79;99723.50;5093563;28;20192;-64
2023/09/20 06:31:20;;;;;;;19.60;8.43;;;;;;;30.28;38.34;99717.31;5093124;28;20225;-63
2023/09/20 06:33:47;;;;;;;17.97;7.10;;;;;;;30.30;37.86;99717.81;5078999;28;20192;-69
2023/09/20 06:36:17;;;;;;;19.43;7.77;;;;;;;30.24;38.54;99716.34;5080797;28;20304;-62
2023/09/20 06:38:44;;;;;;;12.43;6.80;;;;;;;30.45;38.44;99722.03;5073229;28;20275;-62
2023/09/20 06:41:11;;;;;;;13.93;6.87;;;;;;;30.65;37.46;99716.72;5074063;28;20285;-62
2023/09/20 06:43:37;;;;;;;10.60;6.50;;;;;;;30.88;37.65;99717.41;5073615;28;20199;-63
2023/09/20 06:46:07;;;;;;;14.03;6.57;;;;;;;30.89;36.99;99722.56;5074476;28;20261;-63
2023/09/20 06:48:35;;;;;;;8.23;6.47;;;;;;;30.77;37.20;99719.66;5072956;28;20196;-63
2023/09/20 06:51:03;;;;;;;56.73;8.93;;;;;;;30.75;37.35;99727.41;5074122;28;20196;-63
2023/09/20 06:53:30;;;;;;;8.80;6.43;;;;;;;30.62;37.44;99722.84;5072630;28;20203;-63
2023/09/20 06:55:59;;;;;;;11.40;7.10;;;;;;;30.70;37.82;99713.84;5071321;28;20285;-69
2023/09/20 06:58:26;;;;;;;9.33;6.23;;;;;;;30.93;37.41;99722.72;5071273;28;20617;-69
2023/09/20 07:00:53;;;;;;;12.40;6.40;;;;;;;31.10;36.84;99723.50;5072767;28;20667;-70
2023/09/20 07:03:20;;;;;;;7.27;5.37;;;;;;;31.32;36.28;99723.34;5075797;28;20740;-70
2023/09/20 07:05:48;;;;;;;7.30;5.30;;;;;;;31.56;36.45;99729.09;5073016;28;20208;-71
2023/09/20 07:08:18;;;;;;;10.43;5.93;;;;;;;31.59;36.42;99725.69;5090511;28;20198;-71
2023/09/20 07:10:45;;;;;;;5.80;5.37;;;;;;;31.66;35.97;99731.50;5092844;28;20222;-71
2023/09/20 07:13:15;;;;;;;6.47;5.17;;;;;;;31.62;36.15;99730.53;5079444;28;20194;-72
2023/09/20 07:15:43;;;;;;;8.80;5.43;;;;;;;31.65;36.51;99718.88;5072116;28;20219;-63
2023/09/20 07:18:12;;;;;;;8.40;5.70;;;;;;;31.82;35.96;99729.84;5073476;28;20656;-62
2023/09/20 07:20:40;;;;;;;6.70;6.07;;;;;;;31.71;35.66;99725.81;5079227;28;20181;-62
2023/09/20 07:23:12;;;;;;;8.20;5.50;;;;;;;31.34;36.36;99728.50;5071117;28;20289;-62
2023/09/20 07:25:39;;;;;;;6.07;5.27;;;;;;;31.17;37.31;99729.31;5070066;28;20232;-62
2023/09/20 07:28:07;;;;;;;6.73;5.33;;;;;;;31.28;36.97;99725.13;5072261;28;20253;-62
2023/09/20 07:30:40;;;;;;;8.93;5.80;;;;;;;30.89;37.63;99725.31;5088397;28;20751;-63
2023/09/20 07:33:11;;;;;;;16.83;6.77;;;;;;;30.98;37.38;99726.09;5091140;28;20187;-60
2023/09/20 07:35:39;;;;;;;12.97;5.53;;;;;;;30.78;37.84;99723.22;5074116;28;20239;-60
2023/09/20 07:38:17;;;;;;;5.67;5.27;;;;;;;30.67;38.81;99724.63;5071613;28;20200;-60
2023/09/20 07:40:45;;;;;;;20.77;6.87;;;;;;;30.80;38.90;99730.00;5091257;28;20230;-60
2023/09/20 07:43:15;;;;;;;14.33;6.10;;;;;;;31.01;38.29;99730.94;5076322;28;20195;-59
2023/09/20 07:45:42;;;;;;;10.53;5.30;;;;;;;31.19;37.68;99731.75;5088549;28;20186;-60
2023/09/20 07:48:12;;;;;;;6.63;5.60;;;;;;;30.97;38.06;99735.47;5071906;28;20224;-59
2023/09/20 07:50:42;;;;;;;5.67;5.27;;;;;;;31.10;37.56;99737.22;5071268;28;20200;-60
2023/09/20 07:53:15;;;;;;;7.13;5.17;;;;;;;31.21;37.85;99730.28;5081853;28;20237;-59
2023/09/20 07:55:44;;;;;;;6.23;5.63;;;;;;;31.09;37.84;99732.88;5079881;28;20319;-60
2023/09/20 07:58:11;;;;;;;8.37;5.47;;;;;;;31.42;37.35;99728.50;5072008;28;20274;-60
2023/09/20 08:00:41;;;;;;;8.03;5.30;;;;;;;31.53;36.87;99735.25;5071677;28;20179;-60
2023/09/20 08:03:08;;;;;;;10.93;6.17;;;;;;;31.64;36.99;99728.25;5073586;28;20237;-60
2023/09/20 08:05:35;;;;;;;6.30;5.60;;;;;;;31.41;37.30;99724.13;5088083;28;20192;-64
2023/09/20 08:08:02;;;;;;;9.67;5.17;;;;;;;31.72;37.44;99715.63;5074412;28;20203;-64
2023/09/20 08:10:30;;;;;;;12.07;5.50;;;;;;;31.73;36.97;99718.03;5084400;28;20195;-66
2023/09/20 08:12:57;;;;;;;17.77;5.60;;;;;;;31.97;37.26;99707.28;5080097;28;20619;-64
2023/09/20 08:15:24;;;;;;;12.27;4.97;;;;;;;32.23;36.32;99718.97;5091416;28;20254;-64
2023/09/20 08:20:38;;;;;;;5.07;4.57;;;;;;;31.89;37.05;99702.63;5070714;28;20183;-66
2023/09/20 09:01:37;;;;;;;5.53;4.43;;;;;;;32.90;32.96;99661.84;5079126;28;20190;-64
2023/09/20 09:04:07;;;;;;;6.37;5.23;;;;;;;32.79;33.49;99665.31;5086243;28;20282;-65
2023/09/20 09:06:34;;;;;;;5.27;4.87;;;;;;;32.65;33.67;99660.09;5090430;28;20298;-64
2023/09/20 09:09:01;;;;;;;8.30;4.77;;;;;;;32.72;33.89;99656.78;5073598;28;20253;-64
2023/09/20 09:11:28;;;;;;;5.30;4.80;;;;;;;32.92;33.19;99651.28;5080721;28;20257;-65
2023/09/20 09:13:58;;;;;;;11.07;5.47;;;;;;;33.08;32.90;99657.75;5090498;28;20191;-64
2023/09/20 09:16:26;;;;;;;8.17;5.20;;;;;;;33.12;32.52;99658.69;5088650;28;20603;-65
2023/09/20 09:18:54;;;;;;;5.55;5.00;;;;;;;32.80;33.05;99642.16;5079527;28;20191;-65
2023/09/20 09:21:22;;;;;;;5.20;4.70;;;;;;;32.74;33.12;99651.75;5087246;28;20183;-65
2023/09/20 09:23:49;;;;;;;9.90;4.80;;;;;;;32.76;33.12;99635.72;5089044;28;20193;-65
2023/09/20 09:26:16;;;;;;;11.20;5.50;;;;;;;33.00;32.88;99644.88;5090233;28;20755;-65
2023/09/20 09:28:46;;;;;;;20.33;6.13;;;;;;;33.13;32.63;99640.22;5089759;28;20237;-65
2023/09/20 09:31:16;;;;;;;4.88;4.57;;;;;;;33.36;31.60;99635.94;5093580;28;20244;-64
2023/09/20 09:33:43;;;;;;;5.53;4.45;;;;;;;33.54;31.03;99633.75;5093256;28;20619;-65
2023/09/20 09:36:10;;;;;;;4.80;4.50;;;;;;;33.36;30.92;99630.44;5090729;28;20275;-65
2023/09/20 09:38:39;;;;;;;10.07;5.07;;;;;;;33.07;31.34;99633.34;5084357;28;20626;-65
2023/09/20 09:41:08;;;;;;;8.30;4.70;;;;;;;32.93;31.18;99639.13;5074285;28;20227;-65
2023/09/20 09:43:35;;;;;;;7.65;4.80;;;;;;;32.61;31.42;99626.13;5082187;28;20215;-64
2023/09/20 09:46:06;;;;;;;4.77;4.40;;;;;;;32.37;31.01;99622.47;5094273;28;20199;-65
2023/09/20 09:48:35;;;;;;;11.30;4.60;;;;;;;32.59;30.97;99624.88;5093255;28;20194;-65
2023/09/20 09:51:04;;;;;;;6.83;4.70;;;;;;;32.80;31.52;99618.22;5094630;28;20191;-64
2023/09/20 09:53:31;;;;;;;5.90;4.67;;;;;;;32.95;30.69;99620.31;5093677;28;20190;-65
2023/09/20 09:55:59;;;;;;;6.53;4.57;;;;;;;32.99;30.52;99626.75;5093593;28;20702;-64
2023/09/20 09:58:27;;;;;;;4.20;3.90;;;;;;;32.95;30.05;99612.06;5093391;28;20414;-65
2023/09/20 10:00:57;;;;;;;4.95;4.22;;;;;;;33.23;29.69;99612.22;5094219;28;20206;-64
2023/09/20 10:03:29;;;;;;;5.07;4.38;;;;;;;33.45;29.99;99611.03;5093790;28;20175;-65
2023/09/20 10:06:10;;;;;;;8.27;4.53;;;;;;;33.75;29.62;99615.13;5093916;28;20683;-65
2023/09/20 10:08:38;;;;;;;5.60;4.38;;;;;;;33.91;29.21;99605.06;5092921;28;20243;-65
2023/09/20 10:11:06;;;;;;;5.45;4.40;;;;;;;33.98;29.42;99608.03;5093834;28;20290;-64
2023/09/20 10:13:35;;;;;;;6.28;4.30;;;;;;;34.20;28.95;99610.28;5085303;28;20659;-66
2023/09/20 10:16:04;;;;;;;4.25;3.85;;;;;;;34.43;28.20;99608.63;5093660;28;20215;-65
2023/09/20 10:18:33;;;;;;;5.15;4.63;;;;;;;34.30;28.25;99604.28;5088669;28;20275;-66
2023/09/20 10:21:10;;;;;;;5.22;4.68;;;;;;;34.32;28.05;99596.47;5072993;28;20623;-65
2023/09/20 10:23:38;;;;;;;6.00;4.55;;;;;;;34.27;27.98;99589.25;5079567;28;20190;-66
2023/09/20 10:26:13;;;;;;;9.32;4.78;;;;;;;34.25;28.22;99580.50;5093811;28;20220;-65
2023/09/20 10:28:41;;;;;;;6.38;4.43;;;;;;;34.27;27.93;99582.91;5093127;28;20236;-66
2023/09/20 10:31:08;;;;;;;5.53;4.70;;;;;;;34.39;28.24;99574.63;5093481;28;20245;-66
2023/09/20 10:33:47;;;;;;;5.15;4.57;;;;;;;34.51;27.97;99574.56;5093151;28;20245;-65
2023/09/20 10:36:20;;;;;;;6.65;4.65;;;;;;;34.46;27.33;99572.84;5084346;28;20854;-66
2023/09/20 10:38:48;;;;;;;6.03;4.85;;;;;;;34.49;27.88;99569.41;5083654;28;20203;-66
2023/09/20 10:41:16;;;;;;;4.85;4.32;;;;;;;34.45;27.73;99562.19;5073899;28;20220;-65
2023/09/20 10:43:46;;;;;;;7.63;4.28;;;;;;;34.06;28.27;99566.56;5080188;28;20199;-65
2023/09/20 10:46:14;;;;;;;4.82;4.53;;;;;;;34.08;28.35;99564.25;5074077;28;20234;-65
2023/09/20 10:48:44;;;;;;;5.15;4.30;;;;;;;34.03;28.42;99561.72;5090778;28;20191;-61
2023/09/20 10:51:11;;;;;;;7.90;4.90;;;;;;;33.93;28.94;99559.47;5090193;28;20202;-61
2023/09/20 10:53:57;;;;;;;6.07;4.03;;;;;;;33.81;29.64;99559.47;5079691;28;20191;-61
2023/09/20 10:57:05;;;;;;;7.43;4.53;;;;;;;33.39;29.30;99560.84;5079862;28;20293;-61
2023/09/20 10:59:34;;;;;;;5.15;4.40;;;;;;;33.25;29.37;99566.69;5073133;28;20274;-61
2023/09/20 11:02:08;;;;;;;7.28;4.43;;;;;;;33.37;28.90;99562.34;5081581;28;20293;-61
2023/09/20 11:04:35;;;;;;;4.60;4.20;;;;;;;32.89;28.88;99555.63;5080142;28;20194;-61
2023/09/20 11:07:02;;;;;;;5.35;3.75;;;;;;;33.06;28.87;99560.94;5081555;28;20195;-61
2023/09/20 11:09:34;;;;;;;8.25;4.63;;;;;;;33.23;29.00;99549.69;5077896;28;20195;-61
2023/09/20 11:12:07;;;;;;;4.65;4.30;;;;;;;33.40;28.92;99547.91;5090578;28;20286;-62
2023/09/20 11:14:35;;;;;;;5.65;4.22;;;;;;;33.32;29.02;99540.53;5080154;28;20186;-61
2023/09/20 11:17:03;;;;;;;6.75;4.70;;;;;;;33.26;29.42;99528.91;5089710;28;20276;-62
2023/09/20 11:19:30;;;;;;;4.78;4.57;;;;;;;32.90;29.72;99534.38;5081817;28;20192;-60
2023/09/20 11:21:58;;;;;;;4.88;4.55;;;;;;;32.84;30.47;99528.31;5082270;28;20192;-61
2023/09/20 11:24:26;;;;;;;5.05;4.53;;;;;;;32.71;30.29;99523.88;5075316;28;20211;-61
2023/09/20 11:26:56;;;;;;;5.53;5.03;;;;;;;32.72;30.66;99528.28;5080664;28;20245;-61
2023/09/20 11:29:24;;;;;;;4.53;4.18;;;;;;;32.69;30.78;99508.88;5080513;28;20188;-60
2023/09/20 11:31:52;;;;;;;7.25;4.07;;;;;;;32.76;29.71;99529.19;5081173;28;20204;-61
2023/09/20 11:34:19;;;;;;;4.23;3.37;;;;;;;32.63;29.56;99524.00;5073145;28;20249;-61
2023/09/20 11:36:47;;;;;;;4.27;3.97;;;;;;;32.45;29.83;99523.38;5080770;28;20727;-60
2023/09/20 11:39:17;;;;;;;3.73;3.43;;;;;;;32.56;29.83;99524.56;5080660;28;20199;-61
2023/09/20 11:41:45;;;;;;;6.13;3.20;;;;;;;32.62;29.21;99517.69;5072168;28;20232;-61
2023/09/20 11:44:13;;;;;;;4.00;3.70;;;;;;;32.66;29.27;99520.56;5079630;28;20183;-60
2023/09/20 11:46:40;;;;;;;4.23;3.83;;;;;;;32.66;29.98;99515.06;5080362;28;20275;-61
2023/09/20 11:49:08;;;;;;;3.93;3.60;;;;;;;32.75;31.03;99505.56;5080026;28;20282;-60
2023/09/20 11:51:36;;;;;;;4.60;3.55;;;;;;;32.77;29.88;99507.97;5081504;28;20203;-61
2023/09/20 11:54:05;;;;;;;3.10;2.90;;;;;;;32.73;28.81;99507.03;5079172;28;20285;-60
2023/09/20 11:56:35;;;;;;;3.38;3.08;;;;;;;32.45;27.84;99504.13;5075800;28;20222;-61
2023/09/20 11:59:06;;;;;;;3.25;2.80;;;;;;;32.08;28.97;99509.78;5078901;28;20184;-60
2023/09/20 12:01:40;;;;;;;3.67;3.40;;;;;;;32.24;29.18;99500.56;5072746;28;20188;-61
2023/09/20 12:04:07;;;;;;;3.93;2.97;;;;;;;32.33;29.56;99498.56;5081087;28;20191;-60
2023/09/20 12:06:35;;;;;;;3.17;2.97;;;;;;;32.19;30.16;99492.53;5083404;28;20196;-60
2023/09/20 12:09:02;;;;;;;3.20;3.00;;;;;;;32.26;30.18;99492.78;5081776;28;20602;-62
2023/09/20 12:11:29;;;;;;;3.90;3.60;;;;;;;32.37;30.52;99479.44;5086872;28;20206;-61
2023/09/20 12:13:56;;;;;;;4.37;3.63;;;;;;;32.33;30.36;99482.06;5080096;28;20738;-61
2023/09/20 12:16:24;;;;;;;3.90;3.10;;;;;;;32.08;29.91;99469.34;5078030;28;20277;-61